createdAt,value
2019-05-06T00:00:26.762Z,9.20
2019-05-06T00:02:56.206Z,9.20
2019-05-06T00:05:25.764Z,9.20
2019-05-06T00:07:55.361Z,9.20
2019-05-06T00:10:34.145Z,9.20
2019-05-06T00:13:04.752Z,9.20
2019-05-06T00:15:34.581Z,9.10
2019-05-06T00:18:04.683Z,9.10
2019-05-06T00:20:35.117Z,9.10
2019-05-06T00:23:24.828Z,9.10
2019-05-06T00:26:01.432Z,9.10
2019-05-06T00:28:35.410Z,9.10
2019-05-06T00:31:12.703Z,9.10
2019-05-06T00:33:37.654Z,9.10
2019-05-06T00:36:07.034Z,9.10
2019-05-06T00:38:37.750Z,9.10
2019-05-06T00:41:08.701Z,9.10
2019-05-06T00:43:38.026Z,9.00
2019-05-06T00:46:07.693Z,9.10
2019-05-06T00:48:37.009Z,9.10
2019-05-06T00:51:06.338Z,9.10
2019-05-06T00:53:37.302Z,9.10
2019-05-06T00:56:06.618Z,9.10
2019-05-06T00:58:35.933Z,9.10
2019-05-06T01:01:05.574Z,9.10
2019-05-06T01:03:34.956Z,9.10
2019-05-06T01:06:05.093Z,9.20
2019-05-06T01:08:34.999Z,9.20
2019-05-06T01:11:06.230Z,9.20
2019-05-06T01:13:37.194Z,9.20
2019-05-06T01:16:07.098Z,9.20
2019-05-06T01:18:36.414Z,9.30
2019-05-06T01:21:11.594Z,9.30
2019-05-06T01:23:43.915Z,9.30
2019-05-06T01:26:15.574Z,9.30
2019-05-06T01:28:45.707Z,9.30
2019-05-06T01:31:16.074Z,9.30
2019-05-06T01:33:45.519Z,9.30
2019-05-06T01:36:15.067Z,9.30
2019-05-06T01:38:53.560Z,9.30
2019-05-06T01:41:41.354Z,9.30
2019-05-06T01:44:10.665Z,9.30
2019-05-06T01:46:39.993Z,9.20
2019-05-06T01:49:09.307Z,9.20
2019-05-06T01:51:38.801Z,9.20
2019-05-06T01:54:08.114Z,9.20
2019-05-06T01:56:37.437Z,9.20
2019-05-06T01:59:07.825Z,9.20
2019-05-06T02:01:37.154Z,9.20
2019-05-06T02:04:06.517Z,9.20
2019-05-06T02:06:35.849Z,9.20
2019-05-06T02:09:09.611Z,9.20
2019-05-06T02:11:39.006Z,9.20
2019-05-06T02:14:08.317Z,9.20
2019-05-06T02:16:37.645Z,9.10
2019-05-06T02:19:06.957Z,9.10
2019-05-06T02:21:37.929Z,9.10
2019-05-06T02:24:14.966Z,9.10
2019-05-06T02:26:44.306Z,9.10
2019-05-06T02:29:17.778Z,9.10
2019-05-06T02:31:51.198Z,9.10
2019-05-06T02:34:26.150Z,9.10
2019-05-06T02:36:57.118Z,9.10
2019-05-06T02:39:26.431Z,9.10
2019-05-06T02:41:59.424Z,9.00
2019-05-06T02:44:28.738Z,9.00
2019-05-06T02:47:08.983Z,9.00
2019-05-06T02:49:44.275Z,9.00
2019-05-06T02:52:14.185Z,9.00
2019-05-06T02:54:43.650Z,9.00
2019-05-06T02:57:13.347Z,9.00
2019-05-06T02:59:44.100Z,9.00
2019-05-06T03:02:14.256Z,9.00
2019-05-06T03:04:43.888Z,9.00
2019-05-06T03:07:14.459Z,9.00
2019-05-06T03:09:44.646Z,8.90
2019-05-06T03:12:14.192Z,9.00
2019-05-06T03:14:43.896Z,8.90
2019-05-06T03:17:14.228Z,8.90
2019-05-06T03:19:46.040Z,8.90
2019-05-06T03:22:34.481Z,8.90
2019-05-06T03:25:07.209Z,8.90
2019-05-06T03:27:36.694Z,8.80
2019-05-06T03:30:07.458Z,8.80
2019-05-06T03:32:41.830Z,8.80
2019-05-06T03:35:27.453Z,8.80
2019-05-06T03:37:39.131Z,8.70
2019-05-06T03:40:09.193Z,8.70
2019-05-06T03:42:38.521Z,8.70
2019-05-06T03:45:13.240Z,8.60
2019-05-06T03:47:54.058Z,8.60
2019-05-06T03:50:24.051Z,8.60
2019-05-06T03:52:56.517Z,8.50
2019-05-06T03:55:25.894Z,8.50
2019-05-06T03:57:56.830Z,8.40
2019-05-06T04:00:26.142Z,8.40
2019-05-06T04:02:55.463Z,8.40
2019-05-06T04:05:24.774Z,8.30
2019-05-06T04:07:54.201Z,8.30
2019-05-06T04:10:23.593Z,8.20
2019-05-06T04:12:54.187Z,8.20
2019-05-06T04:15:26.865Z,8.20
2019-05-06T04:18:00.045Z,8.20
2019-05-06T04:20:37.031Z,8.10
2019-05-06T04:23:14.356Z,8.10
2019-05-06T04:25:47.920Z,8.10
2019-05-06T04:28:28.129Z,8.10
2019-05-06T04:30:57.675Z,8.00
2019-05-06T04:33:27.174Z,8.00
2019-05-06T04:35:57.460Z,8.00
2019-05-06T04:38:27.063Z,8.00
2019-05-06T04:40:56.622Z,8.00
2019-05-06T04:43:26.887Z,8.00
2019-05-06T04:45:56.538Z,8.00
2019-05-06T04:48:25.866Z,7.90
2019-05-06T04:50:55.193Z,8.00
2019-05-06T04:53:27.070Z,7.90
2019-05-06T04:55:55.666Z,7.90
2019-05-06T04:58:25.674Z,8.00
2019-05-06T05:00:55.054Z,8.00
2019-05-06T05:03:24.554Z,8.00
2019-05-06T05:05:53.944Z,8.00
2019-05-06T05:08:25.011Z,8.00
2019-05-06T05:10:58.706Z,8.00
2019-05-06T05:13:29.695Z,8.00
2019-05-06T05:16:09.599Z,8.10
2019-05-06T05:18:43.722Z,8.10
2019-05-06T05:21:13.110Z,8.10
2019-05-06T05:23:42.917Z,8.10
2019-05-06T05:26:12.388Z,8.20
2019-05-06T05:28:42.936Z,8.20
2019-05-06T05:31:12.493Z,8.30
2019-05-06T05:33:42.801Z,8.30
2019-05-06T05:36:12.496Z,8.40
2019-05-06T05:38:43.207Z,8.40
2019-05-06T05:41:12.588Z,8.50
2019-05-06T05:43:53.615Z,8.60
2019-05-06T05:46:22.931Z,8.60
2019-05-06T05:48:53.908Z,8.70
2019-05-06T05:51:23.312Z,8.70
2019-05-06T05:53:52.742Z,8.80
2019-05-06T05:56:23.970Z,8.90
2019-05-06T05:58:53.680Z,9.00
2019-05-06T06:01:24.811Z,9.00
2019-05-06T06:03:55.098Z,9.20
2019-05-06T06:06:24.838Z,9.30
2019-05-06T06:08:54.344Z,9.40
2019-05-06T06:11:43.386Z,9.50
2019-05-06T06:14:33.019Z,9.60
2019-05-06T06:17:03.177Z,9.70
2019-05-06T06:19:35.025Z,9.80
2019-05-06T06:22:06.123Z,10.00
2019-05-06T06:24:36.328Z,10.10
2019-05-06T06:27:05.729Z,10.30
2019-05-06T06:29:35.142Z,10.40
2019-05-06T06:32:17.984Z,10.50
2019-05-06T06:34:48.954Z,10.70
2019-05-06T06:37:36.014Z,10.80
2019-05-06T06:40:10.429Z,11.10
2019-05-06T06:42:38.974Z,11.30
2019-05-06T06:45:09.606Z,11.60
2019-05-06T06:47:39.099Z,11.90
2019-05-06T06:50:08.875Z,12.20
2019-05-06T06:52:38.210Z,12.50
2019-05-06T06:55:08.121Z,12.80
2019-05-06T06:57:44.937Z,13.10
2019-05-06T07:00:33.707Z,13.40
2019-05-06T07:03:16.688Z,13.70
2019-05-06T07:05:52.734Z,14.00
2019-05-06T07:08:34.384Z,14.30
2019-05-06T07:10:53.367Z,14.50
2019-05-06T07:13:23.270Z,14.70
2019-05-06T07:15:52.662Z,15.00
2019-05-06T07:18:22.580Z,15.20
2019-05-06T07:21:03.244Z,15.40
2019-05-06T07:23:32.799Z,15.70
2019-05-06T07:26:03.035Z,15.90
2019-05-06T07:28:33.866Z,16.10
2019-05-06T07:31:17.350Z,16.40
2019-05-06T07:33:34.267Z,16.60
2019-05-06T07:36:03.777Z,16.80
2019-05-06T07:38:33.198Z,17.00
2019-05-06T07:41:14.785Z,17.20
2019-05-06T07:43:58.166Z,17.40
2019-05-06T07:46:34.999Z,17.60
2019-05-06T07:49:04.560Z,17.80
2019-05-06T07:51:33.933Z,17.90
2019-05-06T07:54:03.277Z,18.10
2019-05-06T07:56:32.687Z,18.30
2019-05-06T07:59:07.861Z,18.50
2019-05-06T08:01:40.218Z,18.70
2019-05-06T08:04:11.903Z,18.90
2019-05-06T08:06:42.726Z,19.10
2019-05-06T08:09:13.086Z,19.30
2019-05-06T08:11:42.579Z,19.40
2019-05-06T08:14:13.000Z,19.60
2019-05-06T08:16:44.505Z,19.80
2019-05-06T08:19:14.079Z,20.00
2019-05-06T08:21:45.145Z,20.10
2019-05-06T08:24:14.469Z,20.20
2019-05-06T08:26:44.173Z,20.30
2019-05-06T08:29:15.944Z,20.40
2019-05-06T08:31:44.598Z,20.50
2019-05-06T08:34:13.935Z,20.50
2019-05-06T08:36:44.894Z,20.60
2019-05-06T08:39:14.592Z,20.70
2019-05-06T08:41:43.916Z,20.70
2019-05-06T08:44:13.254Z,20.80
2019-05-06T08:46:43.393Z,20.80
2019-05-06T08:49:13.190Z,20.90
2019-05-06T08:51:44.209Z,21.00
2019-05-06T08:54:15.182Z,21.10
2019-05-06T08:56:44.504Z,21.30
2019-05-06T08:59:14.101Z,21.50
2019-05-06T09:01:53.397Z,21.80
2019-05-06T09:04:23.415Z,21.90
2019-05-06T09:06:53.453Z,22.20
2019-05-06T09:09:23.240Z,22.30
2019-05-06T09:11:53.435Z,22.40
2019-05-06T09:14:23.803Z,22.30
2019-05-06T09:16:54.033Z,22.10
2019-05-06T09:19:23.719Z,21.90
2019-05-06T09:21:53.492Z,21.60
2019-05-06T09:24:24.022Z,21.40
2019-05-06T09:26:57.926Z,21.10
2019-05-06T09:29:32.615Z,20.90
2019-05-06T09:32:16.165Z,20.70
2019-05-06T09:34:53.071Z,20.50
2019-05-06T09:37:24.090Z,20.30
2019-05-06T09:39:53.775Z,20.20
2019-05-06T09:42:23.345Z,20.20
2019-05-06T09:44:54.064Z,20.20
2019-05-06T09:47:29.238Z,20.20
2019-05-06T09:49:58.578Z,20.20
2019-05-06T09:52:27.899Z,20.10
2019-05-06T09:55:03.302Z,20.00
2019-05-06T09:57:52.224Z,19.90
2019-05-06T10:00:23.499Z,19.70
2019-05-06T10:02:53.798Z,19.50
2019-05-06T10:05:23.137Z,19.40
2019-05-06T10:07:52.730Z,19.20
2019-05-06T10:10:22.408Z,19.00
2019-05-06T10:12:53.095Z,18.90
2019-05-06T10:15:23.154Z,18.70
2019-05-06T10:18:07.879Z,18.60
2019-05-06T10:20:42.290Z,18.50
2019-05-06T10:23:12.602Z,18.30
2019-05-06T10:25:43.698Z,18.20
2019-05-06T10:28:19.635Z,18.10
2019-05-06T10:30:48.958Z,18.10
2019-05-06T10:33:20.020Z,18.00
2019-05-06T10:35:49.360Z,18.00
2019-05-06T10:38:42.369Z,18.00
2019-05-06T10:41:22.306Z,18.00
2019-05-06T10:44:06.499Z,18.00
2019-05-06T10:46:35.886Z,18.10
2019-05-06T10:49:05.222Z,18.10
2019-05-06T10:51:36.258Z,18.20
2019-05-06T10:54:05.666Z,18.30
2019-05-06T10:56:49.974Z,18.50
2019-05-06T10:59:09.429Z,18.60
2019-05-06T11:01:46.697Z,18.80
2019-05-06T11:04:16.098Z,19.00
2019-05-06T11:06:45.699Z,19.20
2019-05-06T11:09:15.099Z,19.40
2019-05-06T11:11:44.437Z,19.60
2019-05-06T11:14:14.134Z,19.70
2019-05-06T11:16:43.449Z,19.70
2019-05-06T11:19:13.397Z,19.60
2019-05-06T11:21:45.099Z,19.50
2019-05-06T11:24:13.933Z,19.30
2019-05-06T11:26:43.254Z,19.10
2019-05-06T11:29:23.292Z,18.90
2019-05-06T11:31:54.418Z,18.70
2019-05-06T11:34:28.375Z,18.50
2019-05-06T11:37:05.216Z,18.40
2019-05-06T11:39:34.563Z,18.20
2019-05-06T11:42:23.832Z,18.10
2019-05-06T11:44:34.994Z,18.00
2019-05-06T11:47:04.323Z,17.90
2019-05-06T11:49:33.642Z,17.90
2019-05-06T11:52:02.970Z,17.90
2019-05-06T11:54:33.855Z,17.90
2019-05-06T11:57:05.130Z,17.90
2019-05-06T11:59:34.448Z,17.90
2019-05-06T12:02:05.498Z,17.90
2019-05-06T12:04:34.917Z,17.90
2019-05-06T12:07:11.022Z,17.90
2019-05-06T12:09:35.415Z,17.90
2019-05-06T12:12:04.923Z,17.90
2019-05-06T12:14:34.313Z,17.90
2019-05-06T12:17:03.943Z,17.90
2019-05-06T12:19:33.421Z,17.90
2019-05-06T12:22:02.746Z,17.90
2019-05-06T12:24:32.129Z,18.00
2019-05-06T12:27:03.274Z,18.00
2019-05-06T12:29:32.481Z,18.00
2019-05-06T12:32:15.719Z,18.00
2019-05-06T12:34:45.033Z,17.90
2019-05-06T12:37:16.043Z,17.90
2019-05-06T12:39:47.058Z,17.80
2019-05-06T12:42:19.421Z,17.80
2019-05-06T12:44:52.787Z,17.80
2019-05-06T12:50:52.577Z,17.70
2019-05-06T12:53:23.136Z,17.70
2019-05-06T12:55:52.784Z,17.70
2019-05-06T12:58:23.329Z,17.80
2019-05-06T13:00:54.454Z,17.80
2019-05-06T13:03:23.822Z,17.90
2019-05-06T13:05:53.159Z,17.90
2019-05-06T13:08:28.231Z,17.90
2019-05-06T13:10:53.840Z,17.90
2019-05-06T13:13:23.170Z,17.90
2019-05-06T13:15:52.938Z,18.00
2019-05-06T13:18:23.214Z,18.00
2019-05-06T13:20:53.253Z,18.10
2019-05-06T13:23:27.392Z,18.10
2019-05-06T13:25:56.701Z,18.10
2019-05-06T13:28:30.315Z,18.20
2019-05-06T13:31:13.537Z,18.20
2019-05-06T13:33:34.198Z,18.20
2019-05-06T13:36:02.452Z,18.30
2019-05-06T13:38:32.177Z,18.30
2019-05-06T13:41:03.318Z,18.30
2019-05-06T13:43:34.511Z,18.30
2019-05-06T13:46:08.357Z,18.30
2019-05-06T13:48:39.469Z,18.30
2019-05-06T13:51:25.416Z,18.30
2019-05-06T13:53:54.829Z,18.30
2019-05-06T13:56:24.216Z,18.20
2019-05-06T13:58:53.623Z,18.10
2019-05-06T14:01:24.673Z,18.10
2019-05-06T14:03:54.050Z,18.00
2019-05-06T14:06:23.367Z,18.00
2019-05-06T14:08:53.035Z,17.90
2019-05-06T14:11:23.269Z,17.90
2019-05-06T14:13:53.677Z,17.90
2019-05-06T14:16:24.630Z,17.80
2019-05-06T14:18:54.169Z,17.80
2019-05-06T14:21:23.546Z,17.80
2019-05-06T14:23:53.249Z,17.80
2019-05-06T14:26:30.214Z,17.80
2019-05-06T14:29:03.651Z,17.70
2019-05-06T14:31:34.774Z,17.70
2019-05-06T14:34:04.114Z,17.70
2019-05-06T14:36:33.435Z,17.70
2019-05-06T14:39:05.041Z,17.60
2019-05-06T14:41:34.616Z,17.70
2019-05-06T14:44:05.263Z,17.60
2019-05-06T14:46:52.221Z,17.60
2019-05-06T14:49:22.449Z,17.60
2019-05-06T14:51:53.687Z,17.60
2019-05-06T14:54:23.226Z,17.60
2019-05-06T14:56:54.182Z,17.60
2019-05-06T14:59:23.634Z,17.60
2019-05-06T15:01:53.811Z,17.60
2019-05-06T15:04:23.400Z,17.60
2019-05-06T15:06:53.065Z,17.60
2019-05-06T15:09:22.797Z,17.60
2019-05-06T15:11:52.118Z,17.60
2019-05-06T15:14:22.706Z,17.60
2019-05-06T15:16:52.857Z,17.60
2019-05-06T15:19:22.837Z,17.50
2019-05-06T15:21:53.157Z,17.50
2019-05-06T15:24:24.377Z,17.40
2019-05-06T15:26:53.689Z,17.40
2019-05-06T15:29:23.741Z,17.30
2019-05-06T15:32:02.604Z,17.30
2019-05-06T15:34:53.042Z,17.20
2019-05-06T15:37:25.180Z,17.20
2019-05-06T15:39:54.514Z,17.20
2019-05-06T15:42:23.830Z,17.20
2019-05-06T15:44:53.166Z,17.20
2019-05-06T15:47:22.814Z,17.20
2019-05-06T15:49:53.257Z,17.20
2019-05-06T15:52:23.454Z,17.20
2019-05-06T15:54:53.088Z,17.20
2019-05-06T15:57:22.878Z,17.20
2019-05-06T15:59:53.112Z,17.20
2019-05-06T16:02:23.229Z,17.20
2019-05-06T16:04:52.938Z,17.10
2019-05-06T16:07:26.010Z,17.10
2019-05-06T16:09:55.376Z,17.10
2019-05-06T16:12:24.961Z,17.10
2019-05-06T16:14:54.298Z,17.10
2019-05-06T16:17:23.968Z,17.00
2019-05-06T16:19:53.528Z,17.00
2019-05-06T16:22:22.957Z,17.00
2019-05-06T16:24:54.005Z,17.00
2019-05-06T16:27:23.325Z,17.00
2019-05-06T16:29:53.062Z,16.90
2019-05-06T16:32:22.597Z,16.90
2019-05-06T16:34:52.478Z,16.90
2019-05-06T16:37:23.090Z,16.90
2019-05-06T16:39:54.566Z,16.90
2019-05-06T16:42:23.522Z,16.90
2019-05-06T16:44:52.938Z,16.90
2019-05-06T16:47:38.312Z,16.90
2019-05-06T16:50:09.981Z,16.90
2019-05-06T16:52:39.574Z,16.80
2019-05-06T16:55:12.302Z,16.80
2019-05-06T16:57:43.266Z,16.80
2019-05-06T17:00:15.385Z,16.70
2019-05-06T17:02:57.613Z,16.70
2019-05-06T17:05:44.302Z,16.70
2019-05-06T17:08:13.626Z,16.60
2019-05-06T17:10:43.380Z,16.60
2019-05-06T17:13:12.775Z,16.60
2019-05-06T17:15:42.175Z,16.50
2019-05-06T17:18:12.256Z,16.50
2019-05-06T17:20:42.691Z,16.50
2019-05-06T17:23:13.109Z,16.40
2019-05-06T17:25:42.644Z,16.40
2019-05-06T17:28:13.671Z,16.40
2019-05-06T17:30:51.623Z,16.40
2019-05-06T17:33:38.014Z,16.30
2019-05-06T17:36:09.050Z,16.30
2019-05-06T17:38:45.846Z,16.30
2019-05-06T17:41:15.427Z,16.30
2019-05-06T17:43:44.852Z,16.20
2019-05-06T17:46:18.607Z,16.20
2019-05-06T17:48:49.558Z,16.20
2019-05-06T17:51:20.706Z,16.20
2019-05-06T17:53:57.402Z,16.20
2019-05-06T17:56:29.399Z,16.10
2019-05-06T17:58:58.720Z,16.10
2019-05-06T18:01:29.858Z,16.10
2019-05-06T18:03:59.173Z,16.00
2019-05-06T18:06:28.518Z,16.00
2019-05-06T18:08:57.911Z,16.00
2019-05-06T18:11:27.281Z,16.00
2019-05-06T18:13:56.642Z,15.90
2019-05-06T18:16:25.963Z,15.90
2019-05-06T18:18:55.295Z,15.90
2019-05-06T18:21:24.619Z,15.90
2019-05-06T18:23:53.954Z,15.80
2019-05-06T18:26:23.274Z,15.80
2019-05-06T18:28:53.680Z,15.80
2019-05-06T18:31:23.002Z,15.80
2019-05-06T18:33:52.870Z,15.70
2019-05-06T18:36:22.819Z,15.70
2019-05-06T18:38:52.692Z,15.60
2019-05-06T18:41:23.588Z,15.60
2019-05-06T18:43:53.640Z,15.60
2019-05-06T18:46:23.201Z,15.50
2019-05-06T18:48:52.664Z,15.50
2019-05-06T18:51:22.532Z,15.50
2019-05-06T18:53:52.571Z,15.50
2019-05-06T18:56:23.121Z,15.40
2019-05-06T18:58:53.123Z,15.40
2019-05-06T19:01:23.413Z,15.40
2019-05-06T19:03:57.178Z,15.30
2019-05-06T19:06:26.525Z,15.30
2019-05-06T19:09:02.438Z,15.20
2019-05-06T19:11:32.998Z,15.20
2019-05-06T19:14:02.400Z,15.20
2019-05-06T19:16:48.299Z,15.10
2019-05-06T19:19:05.501Z,15.00
2019-05-06T19:21:33.777Z,14.90
2019-05-06T19:24:03.181Z,14.90
2019-05-06T19:26:32.815Z,14.80
2019-05-06T19:29:04.313Z,14.80
2019-05-06T19:31:33.252Z,14.60
2019-05-06T19:34:03.280Z,14.60
2019-05-06T19:36:34.877Z,14.50
2019-05-06T19:39:05.863Z,14.40
2019-05-06T19:41:35.849Z,14.30
2019-05-06T19:44:05.254Z,14.20
2019-05-06T19:46:34.565Z,14.20
2019-05-06T19:49:03.909Z,14.10
2019-05-06T19:51:33.301Z,14.10
2019-05-06T19:54:02.638Z,14.00
2019-05-06T19:56:31.958Z,13.90
2019-05-06T19:59:02.099Z,13.80
2019-05-06T20:01:32.315Z,13.70
2019-05-06T20:04:02.541Z,13.60
2019-05-06T20:06:52.367Z,13.50
2019-05-06T20:09:42.702Z,13.40
2019-05-06T20:12:13.810Z,13.30
2019-05-06T20:14:43.150Z,13.30
2019-05-06T20:17:12.945Z,13.10
2019-05-06T20:19:42.655Z,13.00
2019-05-06T20:22:13.032Z,13.00
2019-05-06T20:24:43.562Z,12.90
2019-05-06T20:27:13.381Z,12.80
2019-05-06T20:29:42.919Z,12.70
2019-05-06T20:32:14.035Z,12.70
2019-05-06T20:34:43.367Z,12.60
2019-05-06T20:37:12.971Z,12.50
2019-05-06T20:39:43.248Z,12.40
2019-05-06T20:42:12.961Z,12.40
2019-05-06T20:44:43.429Z,12.30
2019-05-06T20:47:13.227Z,12.20
2019-05-06T20:49:43.276Z,12.20
2019-05-06T20:52:13.657Z,12.10
2019-05-06T20:54:42.991Z,12.10
2019-05-06T20:57:12.670Z,12.00
2019-05-06T21:00:13.551Z,11.90
2019-05-06T21:02:43.042Z,11.90
2019-05-06T21:05:13.922Z,11.80
2019-05-06T21:07:43.478Z,11.80
2019-05-06T21:10:13.068Z,11.70
2019-05-06T21:12:42.436Z,11.60
2019-05-06T21:15:13.367Z,11.60
2019-05-06T21:17:42.794Z,11.50
2019-05-06T21:20:14.161Z,11.50
2019-05-06T21:22:43.966Z,11.40
2019-05-06T21:25:13.725Z,11.40
2019-05-06T21:27:43.109Z,11.30
2019-05-06T21:30:13.767Z,11.30
2019-05-06T21:32:43.154Z,11.20
2019-05-06T21:35:13.428Z,11.10
2019-05-06T21:37:42.774Z,11.10
2019-05-06T21:40:13.233Z,11.10
2019-05-06T21:42:43.240Z,11.00
2019-05-06T21:45:13.297Z,11.00
2019-05-06T21:47:46.089Z,10.90
2019-05-06T21:50:13.997Z,10.90
2019-05-06T21:52:43.331Z,10.80
2019-05-06T21:55:13.454Z,10.80
2019-05-06T21:57:42.914Z,10.70
2019-05-06T22:00:16.979Z,10.70
2019-05-06T22:02:46.655Z,10.60
2019-05-06T22:05:16.305Z,10.60
2019-05-06T22:07:45.662Z,10.50
2019-05-06T22:10:15.570Z,10.50
2019-05-06T22:12:44.906Z,10.40
2019-05-06T22:15:14.222Z,10.40
2019-05-06T22:17:43.562Z,10.30
2019-05-06T22:20:13.142Z,10.30
2019-05-06T22:22:44.251Z,10.30
2019-05-06T22:25:14.195Z,10.20
2019-05-06T22:27:44.620Z,10.20
2019-05-06T22:30:15.630Z,10.20
2019-05-06T22:32:45.374Z,10.10
2019-05-06T22:35:16.489Z,10.10
2019-05-06T22:37:45.990Z,10.10
2019-05-06T22:40:15.374Z,10.10
2019-05-06T22:42:44.706Z,10.10
2019-05-06T22:45:14.241Z,10.10
2019-05-06T22:47:43.570Z,10.10
2019-05-06T22:50:13.331Z,10.10
2019-05-06T22:52:42.666Z,10.10
2019-05-06T22:55:13.052Z,10.00
2019-05-06T22:57:42.531Z,10.10
2019-05-06T23:00:15.321Z,10.10
2019-05-06T23:02:58.113Z,10.10
2019-05-06T23:05:27.491Z,10.00
2019-05-06T23:07:56.817Z,10.00
2019-05-06T23:10:26.134Z,10.00
2019-05-06T23:12:55.457Z,10.00
2019-05-06T23:15:24.780Z,10.00
2019-05-06T23:17:54.115Z,10.00
2019-05-06T23:20:24.523Z,10.00
2019-05-06T23:22:54.040Z,10.00
2019-05-06T23:25:23.357Z,10.00
2019-05-06T23:27:53.121Z,10.00
2019-05-06T23:30:23.596Z,10.10
2019-05-06T23:32:53.149Z,10.10
2019-05-06T23:35:22.497Z,10.10
2019-05-06T23:38:28.189Z,10.10
2019-05-06T23:41:33.994Z,10.10
2019-05-06T23:44:45.741Z,10.20
2019-05-06T23:47:47.585Z,10.10
2019-05-06T23:50:53.781Z,10.10
2019-05-06T23:53:59.906Z,10.10
2019-05-06T23:56:43.249Z,10.10
2019-05-06T23:59:17.499Z,10.10
